sensor_id;sensor_type;location;lat;lon;timestamp;pressure;altitude;pressure_sealevel;temperature;humidity
36964;BME280;22878;48.616;35.326;2022-12-13T00:02:16;100358.48;;;5.32;100.00
36964;BME280;22878;48.616;35.326;2022-12-13T00:04:42;100363.21;;;5.39;100.00
36964;BME280;22878;48.616;35.326;2022-12-13T00:07:08;100365.11;;;5.41;100.00
36964;BME280;22878;48.616;35.326;2022-12-13T00:09:34;100368.38;;;5.43;100.00
36964;BME280;22878;48.616;35.326;2022-12-13T00:12:00;100365.95;;;5.41;100.00
36964;BME280;22878;48.616;35.326;2022-12-13T00:14:26;100371.22;;;5.39;100.00
36964;BME280;22878;48.616;35.326;2022-12-13T00:16:52;100367.37;;;5.35;100.00
36964;BME280;22878;48.616;35.326;2022-12-13T00:19:18;100366.03;;;5.35;100.00
36964;BME280;22878;48.616;35.326;2022-12-13T00:21:45;100367.62;;;5.33;100.00
36964;BME280;22878;48.616;35.326;2022-12-13T00:24:10;100363.36;;;5.35;100.00
36964;BME280;22878;48.616;35.326;2022-12-13T00:26:37;100373.59;;;5.38;100.00
36964;BME280;22878;48.616;35.326;2022-12-13T00:29:05;100373.37;;;5.39;100.00
36964;BME280;22878;48.616;35.326;2022-12-13T00:31:32;100370.83;;;5.44;100.00
36964;BME280;22878;48.616;35.326;2022-12-13T00:33:59;100370.83;;;5.44;100.00
36964;BME280;22878;48.616;35.326;2022-12-13T00:36:25;100382.48;;;5.41;100.00
36964;BME280;22878;48.616;35.326;2022-12-13T00:38:51;100374.70;;;5.39;100.00
36964;BME280;22878;48.616;35.326;2022-12-13T00:41:31;100372.31;;;5.40;100.00
36964;BME280;22878;48.616;35.326;2022-12-13T00:43:59;100372.09;;;5.42;100.00
36964;BME280;22878;48.616;35.326;2022-12-13T00:46:27;100387.94;;;5.34;100.00
36964;BME280;22878;48.616;35.326;2022-12-13T00:48:55;100387.59;;;5.31;100.00
36964;BME280;22878;48.616;35.326;2022-12-13T00:51:24;100376.62;;;5.30;100.00
36964;BME280;22878;48.616;35.326;2022-12-13T00:53:51;100383.30;;;5.30;100.00
36964;BME280;22878;48.616;35.326;2022-12-13T00:56:20;100380.09;;;5.30;100.00
36964;BME280;22878;48.616;35.326;2022-12-13T00:58:48;100380.91;;;5.31;100.00
36964;BME280;22878;48.616;35.326;2022-12-13T01:01:15;100380.31;;;5.29;100.00
36964;BME280;22878;48.616;35.326;2022-12-13T01:03:43;100385.91;;;5.27;100.00
36964;BME280;22878;48.616;35.326;2022-12-13T01:06:21;100387.77;;;5.27;100.00
36964;BME280;22878;48.616;35.326;2022-12-13T01:08:50;100386.47;;;5.29;100.00
36964;BME280;22878;48.616;35.326;2022-12-13T01:11:16;100394.94;;;5.26;100.00
36964;BME280;22878;48.616;35.326;2022-12-13T01:13:44;100400.67;;;5.20;100.00
36964;BME280;22878;48.616;35.326;2022-12-13T01:16:11;100387.56;;;5.19;100.00
36964;BME280;22878;48.616;35.326;2022-12-13T01:18:39;100381.10;;;5.17;100.00
36964;BME280;22878;48.616;35.326;2022-12-13T01:21:09;100390.56;;;5.11;100.00
36964;BME280;22878;48.616;35.326;2022-12-13T01:23:37;100401.56;;;5.12;100.00
36964;BME280;22878;48.616;35.326;2022-12-13T01:26:10;100392.63;;;5.18;100.00
36964;BME280;22878;48.616;35.326;2022-12-13T01:28:37;100389.08;;;5.15;100.00
36964;BME280;22878;48.616;35.326;2022-12-13T01:31:06;100394.81;;;5.09;100.00
36964;BME280;22878;48.616;35.326;2022-12-13T01:33:34;100397.63;;;5.05;100.00
36964;BME280;22878;48.616;35.326;2022-12-13T01:36:03;100400.30;;;5.05;100.00
36964;BME280;22878;48.616;35.326;2022-12-13T01:38:31;100397.48;;;5.09;100.00
36964;BME280;22878;48.616;35.326;2022-12-13T01:40:57;100406.44;;;5.15;100.00
36964;BME280;22878;48.616;35.326;2022-12-13T01:46:12;100404.58;;;5.15;100.00
36964;BME280;22878;48.616;35.326;2022-12-13T01:51:23;100406.02;;;5.20;100.00
36964;BME280;22878;48.616;35.326;2022-12-13T01:53:52;100408.30;;;5.26;100.00
36964;BME280;22878;48.616;35.326;2022-12-13T01:56:25;100408.19;;;5.21;100.00
36964;BME280;22878;48.616;35.326;2022-12-13T01:58:53;100415.96;;;5.22;100.00
36964;BME280;22878;48.616;35.326;2022-12-13T02:01:20;100410.09;;;5.23;100.00
36964;BME280;22878;48.616;35.326;2022-12-13T02:03:47;100408.19;;;5.21;100.00
36964;BME280;22878;48.616;35.326;2022-12-13T02:09:56;100405.45;;;5.18;100.00
36964;BME280;22878;48.616;35.326;2022-12-13T02:12:29;100403.66;;;5.21;100.00
36964;BME280;22878;48.616;35.326;2022-12-13T02:15:00;100410.03;;;5.20;100.00
36964;BME280;22878;48.616;35.326;2022-12-13T02:25:52;100398.27;;;5.31;100.00
36964;BME280;22878;48.616;35.326;2022-12-13T02:28:40;100394.61;;;5.34;100.00
36964;BME280;22878;48.616;35.326;2022-12-13T02:31:21;100394.38;;;5.24;100.00
36964;BME280;22878;48.616;35.326;2022-12-13T02:36:49;100380.82;;;5.16;100.00
36964;BME280;22878;48.616;35.326;2022-12-13T02:39:35;100378.08;;;5.14;100.00
36964;BME280;22878;48.616;35.326;2022-12-13T02:42:14;100385.33;;;5.04;100.00
36964;BME280;22878;48.616;35.326;2022-12-13T02:45:07;100383.47;;;5.05;100.00
36964;BME280;22878;48.616;35.326;2022-12-13T02:47:38;100387.02;;;5.08;100.00
36964;BME280;22878;48.616;35.326;2022-12-13T02:50:09;100388.80;;;5.05;100.00
36964;BME280;22878;48.616;35.326;2022-12-13T02:52:38;100390.17;;;4.95;100.00
36964;BME280;22878;48.616;35.326;2022-12-13T02:55:11;100390.77;;;4.97;100.00
36964;BME280;22878;48.616;35.326;2022-12-13T02:57:40;100391.19;;;5.04;100.00
36964;BME280;22878;48.616;35.326;2022-12-13T03:00:10;100386.09;;;5.14;100.00
36964;BME280;22878;48.616;35.326;2022-12-13T03:11:15;100403.31;;;5.18;100.00
36964;BME280;22878;48.616;35.326;2022-12-13T03:13:54;100401.03;;;5.12;100.00
36964;BME280;22878;48.616;35.326;2022-12-13T03:19:09;100401.95;;;4.97;100.00
36964;BME280;22878;48.616;35.326;2022-12-13T03:21:42;100409.47;;;4.97;100.00
36964;BME280;22878;48.616;35.326;2022-12-13T03:24:11;100411.36;;;4.99;100.00
36964;BME280;22878;48.616;35.326;2022-12-13T03:26:38;100409.22;;;4.99;100.00
36964;BME280;22878;48.616;35.326;2022-12-13T03:29:05;100407.53;;;4.95;100.00
36964;BME280;22878;48.616;35.326;2022-12-13T03:31:31;100409.08;;;4.94;100.00
36964;BME280;22878;48.616;35.326;2022-12-13T03:33:58;100404.86;;;4.95;100.00
36964;BME280;22878;48.616;35.326;2022-12-13T03:36:24;100414.66;;;4.92;100.00
36964;BME280;22878;48.616;35.326;2022-12-13T03:38:52;100423.27;;;4.94;100.00
36964;BME280;22878;48.616;35.326;2022-12-13T03:41:21;100416.98;;;4.89;100.00
36964;BME280;22878;48.616;35.326;2022-12-13T03:43:49;100412.66;;;4.88;100.00
36964;BME280;22878;48.616;35.326;2022-12-13T03:46:15;100410.83;;;4.88;100.00
36964;BME280;22878;48.616;35.326;2022-12-13T03:48:41;100406.86;;;4.91;100.00
36964;BME280;22878;48.616;35.326;2022-12-13T03:51:07;100383.91;;;4.81;100.00
36964;BME280;22878;48.616;35.326;2022-12-13T03:53:33;100400.95;;;4.89;100.00
36964;BME280;22878;48.616;35.326;2022-12-13T03:56:01;100384.45;;;4.80;100.00
36964;BME280;22878;48.616;35.326;2022-12-13T03:58:29;100394.77;;;4.76;100.00
36964;BME280;22878;48.616;35.326;2022-12-13T04:04:36;100403.72;;;4.73;100.00
36964;BME280;22878;48.616;35.326;2022-12-13T04:07:02;100396.03;;;4.74;100.00
36964;BME280;22878;48.616;35.326;2022-12-13T04:09:28;100391.19;;;4.73;100.00
36964;BME280;22878;48.616;35.326;2022-12-13T04:11:57;100386.75;;;4.67;100.00
36964;BME280;22878;48.616;35.326;2022-12-13T04:14:41;100388.42;;;4.59;100.00
36964;BME280;22878;48.616;35.326;2022-12-13T04:17:07;100396.13;;;4.49;100.00
36964;BME280;22878;48.616;35.326;2022-12-13T04:19:33;100396.95;;;4.40;100.00
36964;BME280;22878;48.616;35.326;2022-12-13T04:21:59;100391.98;;;4.44;100.00
36964;BME280;22878;48.616;35.326;2022-12-13T04:24:25;100390.08;;;4.42;100.00
36964;BME280;22878;48.616;35.326;2022-12-13T04:26:51;100381.64;;;4.36;100.00
36964;BME280;22878;48.616;35.326;2022-12-13T04:29:20;100363.98;;;4.35;100.00
36964;BME280;22878;48.616;35.326;2022-12-13T04:31:46;100364.80;;;4.26;100.00
36964;BME280;22878;48.616;35.326;2022-12-13T04:34:15;100373.78;;;4.22;100.00
36964;BME280;22878;48.616;35.326;2022-12-13T04:36:41;100360.00;;;4.25;100.00
36964;BME280;22878;48.616;35.326;2022-12-13T04:39:07;100343.11;;;4.22;100.00
36964;BME280;22878;48.616;35.326;2022-12-13T04:41:37;100346.15;;;4.17;100.00
36964;BME280;22878;48.616;35.326;2022-12-13T04:44:05;100352.61;;;4.18;100.00
36964;BME280;22878;48.616;35.326;2022-12-13T04:46:32;100348.53;;;4.16;100.00
36964;BME280;22878;48.616;35.326;2022-12-13T04:48:59;100347.41;;;4.14;100.00
36964;BME280;22878;48.616;35.326;2022-12-13T04:51:25;100351.48;;;4.17;100.00
36964;BME280;22878;48.616;35.326;2022-12-13T04:53:51;100351.12;;;4.13;100.00
36964;BME280;22878;48.616;35.326;2022-12-13T04:56:17;100351.12;;;4.13;100.00
36964;BME280;22878;48.616;35.326;2022-12-13T04:58:43;100349.99;;;4.12;100.00
36964;BME280;22878;48.616;35.326;2022-12-13T05:01:10;100343.86;;;4.11;100.00
36964;BME280;22878;48.616;35.326;2022-12-13T05:03:37;100340.09;;;4.09;100.00
36964;BME280;22878;48.616;35.326;2022-12-13T05:06:09;100337.23;;;4.32;100.00
36964;BME280;22878;48.616;35.326;2022-12-13T05:08:36;100340.70;;;4.51;100.00
36964;BME280;22878;48.616;35.326;2022-12-13T05:11:06;100330.14;;;4.65;100.00
36964;BME280;22878;48.616;35.326;2022-12-13T05:13:34;100328.45;;;4.83;100.00
36964;BME280;22878;48.616;35.326;2022-12-13T05:16:03;100317.03;;;4.96;100.00
36964;BME280;22878;48.616;35.326;2022-12-13T05:18:32;100312.48;;;5.06;100.00
36964;BME280;22878;48.616;35.326;2022-12-13T05:21:04;100318.03;;;5.05;100.00
36964;BME280;22878;48.616;35.326;2022-12-13T05:26:59;100328.05;;;5.21;100.00
36964;BME280;22878;48.616;35.326;2022-12-13T05:33:06;100318.59;;;5.39;100.00
36964;BME280;22878;48.616;35.326;2022-12-13T05:35:33;100307.84;;;5.37;100.00
36964;BME280;22878;48.616;35.326;2022-12-13T05:37:59;100302.72;;;5.35;100.00
36964;BME280;22878;48.616;35.326;2022-12-13T05:40:27;100300.05;;;5.35;100.00
36964;BME280;22878;48.616;35.326;2022-12-13T05:46:36;100302.09;;;5.42;100.00
36964;BME280;22878;48.616;35.326;2022-12-13T05:49:02;100293.55;;;5.43;100.00
36964;BME280;22878;48.616;35.326;2022-12-13T05:51:27;100290.41;;;5.34;100.00
36964;BME280;22878;48.616;35.326;2022-12-13T05:53:53;100292.55;;;5.35;100.00
36964;BME280;22878;48.616;35.326;2022-12-13T05:56:19;100278.27;;;5.41;100.00
36964;BME280;22878;48.616;35.326;2022-12-13T05:58:45;100282.45;;;5.37;100.00
36964;BME280;22878;48.616;35.326;2022-12-13T06:01:13;100287.45;;;5.45;100.00
36964;BME280;22878;48.616;35.326;2022-12-13T06:03:42;100280.06;;;5.50;100.00
36964;BME280;22878;48.616;35.326;2022-12-13T06:06:10;100283.57;;;5.50;100.00
36964;BME280;22878;48.616;35.326;2022-12-13T06:12:17;100274.44;;;5.37;100.00
36964;BME280;22878;48.616;35.326;2022-12-13T06:14:45;100271.37;;;5.31;100.00
36964;BME280;22878;48.616;35.326;2022-12-13T06:17:11;100281.06;;;5.34;100.00
36964;BME280;22878;48.616;35.326;2022-12-13T06:19:37;100288.92;;;5.38;100.00
36964;BME280;22878;48.616;35.326;2022-12-13T06:22:03;100293.27;;;5.42;100.00
36964;BME280;22878;48.616;35.326;2022-12-13T06:24:29;100309.11;;;5.46;100.00
36964;BME280;22878;48.616;35.326;2022-12-13T06:26:55;100307.78;;;5.46;100.00
36964;BME280;22878;48.616;35.326;2022-12-13T06:29:23;100305.75;;;5.51;100.00
36964;BME280;22878;48.616;35.326;2022-12-13T06:31:55;100302.95;;;5.57;100.00
36964;BME280;22878;48.616;35.326;2022-12-13T06:34:22;100312.25;;;5.55;100.00
36964;BME280;22878;48.616;35.326;2022-12-13T06:36:48;100305.75;;;5.51;100.00
36964;BME280;22878;48.616;35.326;2022-12-13T06:39:15;100308.77;;;5.54;100.00
36964;BME280;22878;48.616;35.326;2022-12-13T06:41:41;100302.69;;;5.44;100.00
36964;BME280;22878;48.616;35.326;2022-12-13T06:44:07;100300.23;;;5.31;100.00
36964;BME280;22878;48.616;35.326;2022-12-13T06:46:34;100306.22;;;5.24;100.00
36964;BME280;22878;48.616;35.326;2022-12-13T06:49:00;100300.16;;;5.17;100.00
36964;BME280;22878;48.616;35.326;2022-12-13T06:51:26;100307.63;;;5.06;100.00
36964;BME280;22878;48.616;35.326;2022-12-13T06:53:52;100304.45;;;4.94;100.00
36964;BME280;22878;48.616;35.326;2022-12-13T06:56:19;100294.73;;;4.91;100.00
36964;BME280;22878;48.616;35.326;2022-12-13T06:58:45;100291.58;;;4.82;100.00
36964;BME280;22878;48.616;35.326;2022-12-13T07:01:14;100306.68;;;4.76;100.00
36964;BME280;22878;48.616;35.326;2022-12-13T07:03:41;100310.83;;;4.72;100.00
36964;BME280;22878;48.616;35.326;2022-12-13T07:06:13;100320.48;;;4.64;100.00
36964;BME280;22878;48.616;35.326;2022-12-13T07:08:42;100324.03;;;4.67;100.00
36964;BME280;22878;48.616;35.326;2022-12-13T07:11:15;100334.84;;;4.72;100.00
36964;BME280;22878;48.616;35.326;2022-12-13T07:13:43;100333.13;;;4.78;100.00
36964;BME280;22878;48.616;35.326;2022-12-13T07:16:10;100329.65;;;4.77;100.00
36964;BME280;22878;48.616;35.326;2022-12-13T07:18:37;100322.23;;;4.80;100.00
36964;BME280;22878;48.616;35.326;2022-12-13T07:21:05;100322.41;;;4.87;100.00
36964;BME280;22878;48.616;35.326;2022-12-13T07:27:13;100316.33;;;4.89;100.00
36964;BME280;22878;48.616;35.326;2022-12-13T07:29:39;100312.72;;;4.84;100.00
36964;BME280;22878;48.616;35.326;2022-12-13T07:32:05;100306.70;;;4.88;100.00
36964;BME280;22878;48.616;35.326;2022-12-13T07:34:32;100303.58;;;4.91;100.00
36964;BME280;22878;48.616;35.326;2022-12-13T07:36:58;100298.13;;;4.98;100.00
36964;BME280;22878;48.616;35.326;2022-12-13T07:39:24;100291.70;;;4.87;100.00
36964;BME280;22878;48.616;35.326;2022-12-13T07:41:53;100289.22;;;4.83;100.00
36964;BME280;22878;48.616;35.326;2022-12-13T07:44:20;100288.36;;;4.92;100.00
36964;BME280;22878;48.616;35.326;2022-12-13T07:46:46;100290.33;;;4.96;100.00
36964;BME280;22878;48.616;35.326;2022-12-13T07:52:52;100283.72;;;4.99;100.00
36964;BME280;22878;48.616;35.326;2022-12-13T07:55:18;100257.08;;;5.13;100.00
36964;BME280;22878;48.616;35.326;2022-12-13T07:57:45;100257.08;;;5.13;100.00
36964;BME280;22878;48.616;35.326;2022-12-13T08:00:12;100267.48;;;5.24;100.00
36964;BME280;22878;48.616;35.326;2022-12-13T08:02:39;100274.78;;;5.29;100.00
36964;BME280;22878;48.616;35.326;2022-12-13T08:05:06;100274.96;;;5.48;100.00
36964;BME280;22878;48.616;35.326;2022-12-13T08:07:33;100270.83;;;5.55;100.00
36964;BME280;22878;48.616;35.326;2022-12-13T08:09:59;100255.63;;;5.69;100.00
36964;BME280;22878;48.616;35.326;2022-12-13T08:12:25;100236.78;;;5.76;100.00
36964;BME280;22878;48.616;35.326;2022-12-13T08:14:51;100229.81;;;5.75;100.00
36964;BME280;22878;48.616;35.326;2022-12-13T08:17:17;100224.72;;;5.74;100.00
36964;BME280;22878;48.616;35.326;2022-12-13T08:23:24;100215.50;;;5.81;100.00
36964;BME280;22878;48.616;35.326;2022-12-13T08:32:11;100222.38;;;5.77;100.00
36964;BME280;22878;48.616;35.326;2022-12-13T08:34:38;100225.69;;;5.70;100.00
36964;BME280;22878;48.616;35.326;2022-12-13T08:37:05;100229.04;;;5.63;100.00
36964;BME280;22878;48.616;35.326;2022-12-13T08:39:34;100221.73;;;5.73;100.00
36964;BME280;22878;48.616;35.326;2022-12-13T08:42:02;100221.23;;;5.61;100.00
36964;BME280;22878;48.616;35.326;2022-12-13T08:44:30;100218.09;;;5.50;100.00
36964;BME280;22878;48.616;35.326;2022-12-13T08:46:56;100199.72;;;5.54;100.00
36964;BME280;22878;48.616;35.326;2022-12-13T08:49:22;100205.17;;;5.47;100.00
36964;BME280;22878;48.616;35.326;2022-12-13T08:51:48;100194.95;;;5.44;100.00
36964;BME280;22878;48.616;35.326;2022-12-13T08:54:14;100187.00;;;5.46;100.00
36964;BME280;22878;48.616;35.326;2022-12-13T08:56:40;100171.60;;;5.51;100.00
36964;BME280;22878;48.616;35.326;2022-12-13T08:59:06;100171.60;;;5.51;100.00
36964;BME280;22878;48.616;35.326;2022-12-13T09:01:32;100169.27;;;5.55;100.00
36964;BME280;22878;48.616;35.326;2022-12-13T09:03:58;100160.97;;;5.54;100.00
36964;BME280;22878;48.616;35.326;2022-12-13T09:06:25;100161.44;;;5.51;100.00
36964;BME280;22878;48.616;35.326;2022-12-13T09:16:15;100136.02;;;5.62;100.00
36964;BME280;22878;48.616;35.326;2022-12-13T09:18:44;100123.94;;;5.60;100.00
36964;BME280;22878;48.616;35.326;2022-12-13T09:21:13;100121.01;;;5.61;100.00
36964;BME280;22878;48.616;35.326;2022-12-13T09:23:40;100119.98;;;5.62;100.00
36964;BME280;22878;48.616;35.326;2022-12-13T09:26:08;100106.23;;;5.56;100.00
36964;BME280;22878;48.616;35.326;2022-12-13T09:28:36;100097.96;;;5.58;100.00
36964;BME280;22878;48.616;35.326;2022-12-13T09:31:08;100091.96;;;5.65;100.00
36964;BME280;22878;48.616;35.326;2022-12-13T09:33:36;100082.78;;;5.61;100.00
36964;BME280;22878;48.616;35.326;2022-12-13T09:36:04;100086.89;;;5.66;100.00
36964;BME280;22878;48.616;35.326;2022-12-13T09:42:00;100065.02;;;5.69;100.00
36964;BME280;22878;48.616;35.326;2022-12-13T09:44:30;100068.61;;;5.60;100.00
36964;BME280;22878;48.616;35.326;2022-12-13T09:47:00;100053.43;;;5.63;100.00
36964;BME280;22878;48.616;35.326;2022-12-13T09:52:06;100046.12;;;5.59;100.00
36964;BME280;22878;48.616;35.326;2022-12-13T09:54:35;100043.31;;;5.65;100.00
36964;BME280;22878;48.616;35.326;2022-12-13T09:57:08;100026.70;;;5.63;100.00
36964;BME280;22878;48.616;35.326;2022-12-13T09:59:36;100023.13;;;5.58;100.00
36964;BME280;22878;48.616;35.326;2022-12-13T10:09:23;100018.86;;;5.42;100.00
36964;BME280;22878;48.616;35.326;2022-12-13T10:11:51;100009.50;;;5.42;100.00
36964;BME280;22878;48.616;35.326;2022-12-13T10:14:29;100011.73;;;5.48;100.00
36964;BME280;22878;48.616;35.326;2022-12-13T10:17:01;100002.98;;;5.53;100.00
36964;BME280;22878;48.616;35.326;2022-12-13T10:19:40;99997.41;;;5.54;100.00
36964;BME280;22878;48.616;35.326;2022-12-13T10:22:13;99986.77;;;5.57;100.00
36964;BME280;22878;48.616;35.326;2022-12-13T10:24:57;99979.78;;;5.56;100.00
36964;BME280;22878;48.616;35.326;2022-12-13T10:30:13;99961.17;;;5.61;100.00
36964;BME280;22878;48.616;35.326;2022-12-13T10:38:20;99925.22;;;5.68;100.00
36964;BME280;22878;48.616;35.326;2022-12-13T10:40:37;99915.82;;;5.66;100.00
36964;BME280;22878;48.616;35.326;2022-12-13T10:43:25;99911.19;;;5.61;100.00
36964;BME280;22878;48.616;35.326;2022-12-13T10:48:37;99895.90;;;5.74;100.00
36964;BME280;22878;48.616;35.326;2022-12-13T10:51:09;99888.03;;;5.67;100.00
36964;BME280;22878;48.616;35.326;2022-12-13T10:53:44;99876.45;;;5.61;100.00
36964;BME280;22878;48.616;35.326;2022-12-13T10:56:12;99873.55;;;5.63;100.00
36964;BME280;22878;48.616;35.326;2022-12-13T10:58:41;99884.42;;;5.59;100.00
36964;BME280;22878;48.616;35.326;2022-12-13T11:06:26;99866.86;;;5.63;100.00
36964;BME280;22878;48.616;35.326;2022-12-13T11:11:43;99834.83;;;5.65;100.00
36964;BME280;22878;48.616;35.326;2022-12-13T11:14:18;99833.00;;;5.68;100.00
36964;BME280;22878;48.616;35.326;2022-12-13T11:19:24;99814.10;;;5.75;100.00
36964;BME280;22878;48.616;35.326;2022-12-13T11:21:52;99811.47;;;5.78;100.00
36964;BME280;22878;48.616;35.326;2022-12-13T11:24:23;99797.00;;;5.76;100.00
36964;BME280;22878;48.616;35.326;2022-12-13T11:26:56;99787.67;;;5.79;100.00
36964;BME280;22878;48.616;35.326;2022-12-13T11:29:36;99783.13;;;5.79;100.00
36964;BME280;22878;48.616;35.326;2022-12-13T11:32:22;99781.30;;;5.80;100.00
36964;BME280;22878;48.616;35.326;2022-12-13T11:35:00;99775.61;;;5.76;100.00
36964;BME280;22878;48.616;35.326;2022-12-13T11:40:29;99770.00;;;5.56;100.00
36964;BME280;22878;48.616;35.326;2022-12-13T11:43:05;99779.73;;;5.84;100.00
36964;BME280;22878;48.616;35.326;2022-12-13T11:45:51;99800.09;;;5.87;100.00
36964;BME280;22878;48.616;35.326;2022-12-13T11:48:40;99805.55;;;5.76;100.00
36964;BME280;22878;48.616;35.326;2022-12-13T11:51:10;99809.75;;;5.69;100.00
36964;BME280;22878;48.616;35.326;2022-12-13T11:56:29;99825.52;;;5.90;100.00
36964;BME280;22878;48.616;35.326;2022-12-13T11:59:08;99812.56;;;5.99;100.00
36964;BME280;22878;48.616;35.326;2022-12-13T12:02:08;99819.21;;;5.96;100.00
36964;BME280;22878;48.616;35.326;2022-12-13T12:07:19;99817.84;;;5.94;100.00
36964;BME280;22878;48.616;35.326;2022-12-13T12:13:02;99804.02;;;5.82;100.00
36964;BME280;22878;48.616;35.326;2022-12-13T12:15:32;99804.40;;;5.69;100.00
36964;BME280;22878;48.616;35.326;2022-12-13T12:18:03;99797.70;;;5.50;100.00
36964;BME280;22878;48.616;35.326;2022-12-13T12:25:56;99776.39;;;5.16;100.00
36964;BME280;22878;48.616;35.326;2022-12-13T12:34:23;99752.73;;;4.71;100.00
36964;BME280;22878;48.616;35.326;2022-12-13T12:54:43;99695.86;;;3.77;100.00
36964;BME280;22878;48.616;35.326;2022-12-13T13:00:09;99682.53;;;3.63;100.00
36964;BME280;22878;48.616;35.326;2022-12-13T13:02:48;99674.48;;;3.60;100.00
36964;BME280;22878;48.616;35.326;2022-12-13T13:05:22;99657.84;;;3.53;100.00
36964;BME280;22878;48.616;35.326;2022-12-13T13:10:45;99650.58;;;3.37;100.00
36964;BME280;22878;48.616;35.326;2022-12-13T13:16:53;99639.18;;;3.39;100.00
36964;BME280;22878;48.616;35.326;2022-12-13T13:22:01;99611.53;;;3.28;100.00
36964;BME280;22878;48.616;35.326;2022-12-13T13:24:30;99619.71;;;3.24;100.00
36964;BME280;22878;48.616;35.326;2022-12-13T13:29:42;99602.30;;;3.19;100.00
36964;BME280;22878;48.616;35.326;2022-12-13T13:34:47;99617.94;;;3.15;100.00
36964;BME280;22878;48.616;35.326;2022-12-13T13:42:25;99600.22;;;3.21;100.00
36964;BME280;22878;48.616;35.326;2022-12-13T13:48:09;99586.12;;;3.23;100.00
36964;BME280;22878;48.616;35.326;2022-12-13T13:56:29;99594.75;;;3.28;100.00
36964;BME280;22878;48.616;35.326;2022-12-13T13:59:13;99594.50;;;3.29;100.00
36964;BME280;22878;48.616;35.326;2022-12-13T14:21:04;99564.19;;;3.45;100.00
36964;BME280;22878;48.616;35.326;2022-12-13T14:23:52;99556.09;;;3.39;100.00
36964;BME280;22878;48.616;35.326;2022-12-13T14:29:31;99547.53;;;3.37;100.00
36964;BME280;22878;48.616;35.326;2022-12-13T14:31:59;99556.67;;;3.41;100.00
36964;BME280;22878;48.616;35.326;2022-12-13T14:34:28;99551.09;;;3.43;100.00
36964;BME280;22878;48.616;35.326;2022-12-13T14:37:03;99544.17;;;3.42;100.00
36964;BME280;22878;48.616;35.326;2022-12-13T14:39:31;99552.70;;;3.44;100.00
36964;BME280;22878;48.616;35.326;2022-12-13T14:42:01;99551.73;;;3.48;100.00
36964;BME280;22878;48.616;35.326;2022-12-13T14:44:32;99563.28;;;3.53;100.00
36964;BME280;22878;48.616;35.326;2022-12-13T14:47:06;99577.36;;;3.51;100.00
36964;BME280;22878;48.616;35.326;2022-12-13T14:49:35;99594.72;;;3.54;100.00
36964;BME280;22878;48.616;35.326;2022-12-13T14:52:19;99592.86;;;3.54;100.00
36964;BME280;22878;48.616;35.326;2022-12-13T14:54:56;99598.13;;;3.52;100.00
36964;BME280;22878;48.616;35.326;2022-12-13T14:57:27;99605.05;;;3.50;100.00
36964;BME280;22878;48.616;35.326;2022-12-13T14:59:56;99604.95;;;3.59;100.00
36964;BME280;22878;48.616;35.326;2022-12-13T15:02:32;99605.22;;;3.60;100.00
36964;BME280;22878;48.616;35.326;2022-12-13T15:05:00;99605.80;;;3.62;100.00
36964;BME280;22878;48.616;35.326;2022-12-13T15:07:36;99601.50;;;3.61;100.00
36964;BME280;22878;48.616;35.326;2022-12-13T15:12:41;99612.89;;;3.57;100.00
36964;BME280;22878;48.616;35.326;2022-12-13T15:22:11;99598.98;;;3.55;100.00
36964;BME280;22878;48.616;35.326;2022-12-13T15:24:40;99603.13;;;3.48;100.00
36964;BME280;22878;48.616;35.326;2022-12-13T15:27:10;99612.93;;;3.45;100.00
36964;BME280;22878;48.616;35.326;2022-12-13T15:29:37;99615.06;;;3.46;100.00
36964;BME280;22878;48.616;35.326;2022-12-13T15:34:36;99610.02;;;3.47;100.00
36964;BME280;22878;48.616;35.326;2022-12-13T15:39:44;99612.60;;;3.41;100.00
36964;BME280;22878;48.616;35.326;2022-12-13T15:42:27;99609.41;;;3.42;100.00
36964;BME280;22878;48.616;35.326;2022-12-13T15:44:58;99612.97;;;3.33;100.00
36964;BME280;22878;48.616;35.326;2022-12-13T15:47:26;99619.77;;;3.27;100.00
36964;BME280;22878;48.616;35.326;2022-12-13T15:49:57;99622.13;;;3.26;100.00
36964;BME280;22878;48.616;35.326;2022-12-13T15:52:36;99633.88;;;3.27;100.00
36964;BME280;22878;48.616;35.326;2022-12-13T15:57:48;99624.73;;;3.23;100.00
36964;BME280;22878;48.616;35.326;2022-12-13T16:00:21;99619.46;;;3.26;100.00
36964;BME280;22878;48.616;35.326;2022-12-13T16:05:36;99611.95;;;3.23;100.00
36964;BME280;22878;48.616;35.326;2022-12-13T16:08:06;99606.34;;;3.22;100.00
36964;BME280;22878;48.616;35.326;2022-12-13T16:10:34;99607.53;;;3.28;100.00
36964;BME280;22878;48.616;35.326;2022-12-13T16:13:03;99608.70;;;3.21;100.00
36964;BME280;22878;48.616;35.326;2022-12-13T16:15:50;99612.67;;;3.18;100.00
36964;BME280;22878;48.616;35.326;2022-12-13T16:18:42;99618.27;;;3.19;100.00
36964;BME280;22878;48.616;35.326;2022-12-13T16:21:13;99633.38;;;3.16;100.00
36964;BME280;22878;48.616;35.326;2022-12-13T16:23:39;99635.87;;;3.08;100.00
36964;BME280;22878;48.616;35.326;2022-12-13T16:26:05;99638.31;;;3.10;100.00
36964;BME280;22878;48.616;35.326;2022-12-13T16:28:31;99641.03;;;3.12;100.00
36964;BME280;22878;48.616;35.326;2022-12-13T16:31:13;99649.30;;;3.13;100.00
36964;BME280;22878;48.616;35.326;2022-12-13T16:33:40;99656.53;;;3.15;100.00
36964;BME280;22878;48.616;35.326;2022-12-13T16:36:08;99670.12;;;3.16;100.00
36964;BME280;22878;48.616;35.326;2022-12-13T16:38:35;99677.42;;;3.21;100.00
36964;BME280;22878;48.616;35.326;2022-12-13T16:41:01;99688.87;;;3.22;100.00